Hauptseite
METAR-TAF:

METAR-TAF

Flughäfen :

Dakar, Senegal

Flughafen Dakar-Léopold Sédar Senghor

Breite: 14-44N, Länge: 017-30W, Höhe: 27 m

Beobachtung

Neuester Wetterbericht von vor 1 Stunde und 9 Minuten, um 21:00 UTC
Wind 2 kt aus Nord/Nordwest
Temperatur 19°C
Luftfeuchtigkeit 88%
Luftdruck 1013 hPa
Sichtweite: 8000 m

METAR: GOOY 242100Z 34002KT 8000 NSC 19/17 Q1013

Zeit: 22:09 (22:09 UTC)

Prognose

Neuester Wetterbericht von vor 4 Stunden und 39 Minuten, um 17:30 UTC
Gültige Prognose vom 24 um 18 UTC bis 25 um 24 UTC
Wind 6 kt aus West/Nordwest
Sichtweite 10 km oder mehr
Aufgelockert bewölkt in der Höhe von 1300 ft

TAF: GOOY 241730Z 2418/2524 30006KT 9999 SCT013

Wetterbeobachtungen und Prognosen von mehr als 4000 Flughäfen (METAR und TAF Bericht).

Die verfügbaren Stationen werden durch gelbe und rote Markierungen auf der Karte dargestellt.

Führen Sie die Maus auf sie, um den Namen der Station zu sehen.

Darauf klicken, um die Beobachtung von Wetterbeobachtungen und Prognosen zu sehen.

Um die Karte zu ändern : klicken Sie auf den grünen Tasten mit einem schwarzen Kreuz Zum Vergrößern, auf den grünen Button mit einem Gedankenstrich zu verkleinern, oder auf die grünen Pfeile für benachbarte Karten.


METAR-TAF: